Time;durP1;ratioP1;P1;durP2;ratioP2;P2;SDS_P1;SDS_P2;PMS_P1;PMS_P2;Temp;Humidity;BMP_temperature;BMP_pressure;BME280_temperature;BME280_humidity;BME280_pressure;Samples;Min_cycle;Max_cycle;Signal;HPM_P1;HPM_P2
2022/12/02 00:01:17;;;;;;;40.67;28.05;;;4.60;99.90;;;;;;5005720;28;20034;-65
2022/12/02 00:03:44;;;;;;;44.17;28.92;;;4.70;99.90;;;;;;5007043;28;20085;-65
2022/12/02 00:06:18;;;;;;;43.25;20.35;;;4.70;99.90;;;;;;5015115;28;20034;-65
2022/12/02 00:08:43;;;;;;;40.90;27.58;;;4.60;99.90;;;;;;4997331;28;20080;-66
2022/12/02 00:11:26;;;;;;;39.47;27.38;;;4.60;99.90;;;;;;4997813;28;20366;-65
2022/12/02 00:13:54;;;;;;;40.60;28.67;;;4.70;99.90;;;;;;4988302;28;20053;-65
2022/12/02 00:16:22;;;;;;;39.65;27.52;;;4.70;99.90;;;;;;4997454;28;20056;-65
2022/12/02 00:18:49;;;;;;;42.22;18.45;;;4.70;99.90;;;;;;4996729;28;20438;-65
2022/12/02 00:21:14;;;;;;;41.13;26.88;;;4.70;99.90;;;;;;5014902;28;20186;-66
2022/12/02 00:23:41;;;;;;;38.08;17.08;;;4.70;99.90;;;;;;5001639;28;20425;-66
2022/12/02 00:26:07;;;;;;;39.45;26.60;;;4.70;99.90;;;;;;4995978;28;20150;-65
2022/12/02 00:28:33;;;;;;;38.33;18.52;;;4.70;99.90;;;;;;5014391;28;20045;-65
2022/12/02 00:30:58;;;;;;;40.17;26.73;;;4.60;99.90;;;;;;5014361;28;20370;-66
2022/12/02 00:33:24;;;;;;;39.80;26.63;;;4.60;99.90;;;;;;4989635;28;20249;-66
2022/12/02 00:35:50;;;;;;;41.42;19.35;;;4.60;99.90;;;;;;5009557;28;20030;-65
2022/12/02 00:38:17;;;;;;;40.72;27.08;;;4.60;99.90;;;;;;5014170;28;20419;-65
2022/12/02 00:40:42;;;;;;;40.72;27.48;;;4.60;99.90;;;;;;5014616;28;20048;-66
2022/12/02 00:48:36;;;;;;;46.47;28.70;;;4.50;99.90;;;;;;4996174;28;20133;-65
2022/12/02 00:51:02;;;;;;;39.65;18.50;;;4.50;99.90;;;;;;5014238;28;20383;-66
2022/12/02 00:53:28;;;;;;;40.50;18.77;;;4.50;99.90;;;;;;5011726;28;20522;-65
2022/12/02 00:55:53;;;;;;;40.55;18.45;;;4.50;99.90;;;;;;5014185;28;20128;-66
2022/12/02 00:58:19;;;;;;;42.90;28.23;;;4.30;99.90;;;;;;5013558;28;20050;-65
2022/12/02 01:00:44;;;;;;;44.30;19.95;;;4.40;99.90;;;;;;5013919;28;20467;-64
2022/12/02 01:03:10;;;;;;;44.60;27.38;;;4.30;99.90;;;;;;5002101;28;20407;-65
2022/12/02 01:05:36;;;;;;;40.60;18.95;;;4.30;99.90;;;;;;4994542;28;20033;-65
2022/12/02 01:08:03;;;;;;;44.53;29.50;;;4.30;99.90;;;;;;4995884;28;20050;-66
2022/12/02 01:10:28;;;;;;;42.08;18.88;;;4.30;99.90;;;;;;5013700;28;20041;-66
2022/12/02 01:12:54;;;;;;;42.55;27.15;;;4.30;99.90;;;;;;5010638;28;20621;-65
2022/12/02 01:15:20;;;;;;;44.60;19.55;;;4.20;99.90;;;;;;5008029;28;20041;-65
2022/12/02 01:17:45;;;;;;;43.13;19.30;;;4.20;99.90;;;;;;4985931;28;20030;-65
2022/12/02 01:20:12;;;;;;;40.95;19.13;;;4.20;99.90;;;;;;4996323;28;20536;-65
2022/12/02 01:22:38;;;;;;;44.78;28.65;;;4.20;99.90;;;;;;4995569;28;20042;-66
2022/12/02 01:25:04;;;;;;;46.90;20.10;;;4.20;99.90;;;;;;4985936;28;20057;-66
2022/12/02 01:27:31;;;;;;;49.55;31.65;;;4.20;99.90;;;;;;4982401;28;20046;-65
2022/12/02 01:29:57;;;;;;;45.35;20.00;;;4.30;99.90;;;;;;4987573;28;20042;-65
2022/12/02 01:32:23;;;;;;;43.80;19.83;;;4.20;99.90;;;;;;5007142;28;20046;-65
2022/12/02 01:34:49;;;;;;;45.67;29.58;;;4.10;99.90;;;;;;5001547;28;20042;-66
2022/12/02 01:37:15;;;;;;;41.67;19.27;;;4.00;99.90;;;;;;5013376;28;20052;-65
2022/12/02 01:39:42;;;;;;;43.95;28.83;;;4.10;99.90;;;;;;5012558;28;20037;-66
2022/12/02 01:42:08;;;;;;;48.28;19.50;;;4.10;99.90;;;;;;5012797;28;20379;-65
2022/12/02 01:44:34;;;;;;;49.60;30.10;;;4.10;99.90;;;;;;4982058;28;20371;-65
2022/12/02 01:47:00;;;;;;;44.58;20.05;;;4.10;99.90;;;;;;5012866;28;20045;-66
2022/12/02 01:49:26;;;;;;;45.88;28.55;;;4.10;99.90;;;;;;5012456;28;20434;-65
2022/12/02 01:51:52;;;;;;;48.05;29.60;;;4.10;99.90;;;;;;4979078;28;20510;-65
2022/12/02 01:54:18;;;;;;;45.70;20.23;;;4.10;99.90;;;;;;4999316;28;20181;-66
2022/12/02 01:56:43;;;;;;;47.97;29.63;;;4.10;99.90;;;;;;4978466;28;20073;-65
2022/12/02 01:59:12;;;;;;;49.25;20.92;;;4.10;99.90;;;;;;5011871;28;20466;-65
2022/12/02 02:01:38;;;;;;;46.13;29.25;;;4.10;99.90;;;;;;5012903;28;20037;-65
2022/12/02 02:04:06;;;;;;;42.88;27.85;;;4.10;99.90;;;;;;4966653;28;20045;-65
2022/12/02 02:06:36;;;;;;;46.92;19.50;;;4.20;99.90;;;;;;4984001;28;20169;-66
2022/12/02 02:09:02;;;;;;;45.08;27.65;;;4.10;99.90;;;;;;5011086;28;20068;-66
2022/12/02 02:11:35;;;;;;;44.40;28.70;;;4.10;99.90;;;;;;5002853;28;20041;-65
2022/12/02 02:14:03;;;;;;;46.45;19.25;;;4.20;99.90;;;;;;5001479;28;20057;-66
2022/12/02 02:16:32;;;;;;;44.67;29.02;;;4.10;99.90;;;;;;4995238;28;20061;-67
2022/12/02 02:18:58;;;;;;;46.67;28.63;;;4.20;99.90;;;;;;5012379;28;20093;-66
2022/12/02 02:21:31;;;;;;;41.30;18.00;;;4.10;99.90;;;;;;5012673;28;20453;-66
2022/12/02 02:24:00;;;;;;;50.50;30.87;;;4.10;99.90;;;;;;5001820;28;20455;-65
2022/12/02 02:26:26;;;;;;;47.53;18.98;;;4.10;99.90;;;;;;5000266;28;20064;-65
2022/12/02 02:28:52;;;;;;;44.92;18.85;;;4.10;99.90;;;;;;4998995;28;20463;-65
2022/12/02 02:31:18;;;;;;;46.58;29.48;;;4.00;99.90;;;;;;4998172;28;20092;-65
2022/12/02 02:33:44;;;;;;;42.88;19.55;;;4.00;99.90;;;;;;4986254;28;20110;-66
2022/12/02 02:36:10;;;;;;;45.83;27.95;;;4.00;99.90;;;;;;5009895;28;20038;-66
2022/12/02 02:38:36;;;;;;;48.67;29.45;;;4.00;99.90;;;;;;5012137;28;20377;-65
2022/12/02 02:41:02;;;;;;;42.22;20.40;;;4.00;99.90;;;;;;5012155;28;20459;-65
2022/12/02 02:43:34;;;;;;;49.95;29.83;;;4.00;99.90;;;;;;4988034;28;20526;-66
2022/12/02 02:46:02;;;;;;;44.30;20.65;;;4.00;99.90;;;;;;5006927;28;20042;-64
2022/12/02 02:48:28;;;;;;;45.70;19.17;;;4.00;99.90;;;;;;5011891;28;20045;-66
2022/12/02 02:50:55;;;;;;;45.88;29.95;;;4.00;99.90;;;;;;4995060;28;20081;-65
2022/12/02 02:53:22;;;;;;;43.97;20.65;;;4.00;99.90;;;;;;5006001;28;20050;-65
2022/12/02 02:55:48;;;;;;;44.47;27.73;;;4.00;99.90;;;;;;4986311;28;20107;-66
2022/12/02 02:58:14;;;;;;;47.60;19.80;;;4.00;99.90;;;;;;4994172;28;20459;-65
2022/12/02 03:00:41;;;;;;;39.20;18.95;;;4.00;99.90;;;;;;5012169;28;20034;-65
2022/12/02 03:03:09;;;;;;;43.22;18.70;;;4.00;99.90;;;;;;4990662;28;20141;-66
2022/12/02 03:05:35;;;;;;;43.95;27.02;;;3.90;99.90;;;;;;5010018;28;20029;-65
2022/12/02 03:08:02;;;;;;;40.00;17.95;;;4.00;99.90;;;;;;5011912;28;20469;-65
2022/12/02 03:10:29;;;;;;;39.92;19.17;;;4.00;99.90;;;;;;5000530;28;20101;-66
2022/12/02 03:12:55;;;;;;;46.53;28.75;;;3.90;99.90;;;;;;5014272;28;20034;-65
2022/12/02 03:15:23;;;;;;;41.78;27.35;;;3.90;99.90;;;;;;4992739;28;20381;-66
2022/12/02 03:17:49;;;;;;;40.47;18.30;;;3.90;99.90;;;;;;5015081;28;20042;-66
2022/12/02 03:20:15;;;;;;;41.03;27.05;;;3.90;99.90;;;;;;5015658;28;20431;-66
2022/12/02 03:22:41;;;;;;;39.95;18.52;;;3.90;99.90;;;;;;5015600;28;20119;-65
2022/12/02 03:25:07;;;;;;;44.45;27.67;;;3.90;99.90;;;;;;4988782;28;20760;-65
2022/12/02 03:27:33;;;;;;;42.08;18.35;;;3.90;99.90;;;;;;4997360;28;20065;-65
2022/12/02 03:30:01;;;;;;;32.22;16.27;;;3.90;99.90;;;;;;5015339;28;20050;-66
2022/12/02 03:32:27;;;;;;;38.13;23.75;;;3.80;99.90;;;;;;4984004;28;20436;-65
2022/12/02 03:34:52;;;;;;;38.03;16.13;;;3.80;99.90;;;;;;5004829;28;20076;-65
2022/12/02 03:37:18;;;;;;;38.70;17.85;;;3.80;99.90;;;;;;5015416;28;20061;-66
2022/12/02 03:39:44;;;;;;;35.67;23.00;;;3.80;99.90;;;;;;4997861;28;20123;-66
2022/12/02 03:42:10;;;;;;;30.17;13.07;;;3.80;99.90;;;;;;4997877;28;20045;-67
2022/12/02 03:44:36;;;;;;;33.35;14.80;;;3.80;99.90;;;;;;4985354;28;20038;-66
2022/12/02 03:47:03;;;;;;;33.42;22.25;;;3.80;99.90;;;;;;5015090;28;20151;-65
2022/12/02 03:49:31;;;;;;;30.75;15.88;;;3.70;99.90;;;;;;5015086;28;20049;-65
2022/12/02 03:51:57;;;;;;;30.38;21.63;;;3.70;99.90;;;;;;4997459;28;20063;-65
2022/12/02 03:54:23;;;;;;;27.92;19.77;;;3.70;99.90;;;;;;5002113;28;20117;-65
2022/12/02 03:56:48;;;;;;;30.95;13.77;;;3.60;99.90;;;;;;5014765;28;20338;-66
2022/12/02 03:59:24;;;;;;;29.10;14.85;;;3.60;99.90;;;;;;4997751;28;20466;-66
2022/12/02 04:01:50;;;;;;;28.85;13.68;;;3.60;99.90;;;;;;4997768;28;20042;-65
2022/12/02 04:04:18;;;;;;;31.08;21.52;;;3.60;99.90;;;;;;5009591;28;20458;-65
2022/12/02 04:06:44;;;;;;;32.00;13.48;;;3.60;99.90;;;;;;4997918;28;20081;-65
2022/12/02 04:09:09;;;;;;;30.45;21.70;;;3.70;99.90;;;;;;4992383;28;20571;-65
2022/12/02 04:11:36;;;;;;;27.60;15.55;;;3.70;99.90;;;;;;4995552;28;20359;-66
2022/12/02 04:14:04;;;;;;;31.65;20.70;;;3.70;99.90;;;;;;4964455;28;20053;-65
2022/12/02 04:16:30;;;;;;;29.13;14.23;;;3.70;99.90;;;;;;5014836;28;20042;-65
2022/12/02 04:18:57;;;;;;;28.52;19.52;;;3.60;99.90;;;;;;4995165;28;20038;-65
2022/12/02 04:21:23;;;;;;;28.67;12.40;;;3.60;99.90;;;;;;5001684;28;20061;-65
2022/12/02 04:23:51;;;;;;;25.80;13.13;;;3.50;99.90;;;;;;4956301;28;20050;-65
2022/12/02 04:26:19;;;;;;;29.13;20.10;;;3.50;99.90;;;;;;4987408;28;20482;-66
2022/12/02 04:28:44;;;;;;;29.20;21.13;;;3.40;99.90;;;;;;5014337;28;20050;-65
2022/12/02 04:31:10;;;;;;;24.48;12.15;;;3.50;99.90;;;;;;5014728;28;20088;-65
2022/12/02 04:33:37;;;;;;;27.88;13.88;;;3.50;99.90;;;;;;5007758;28;20045;-66
2022/12/02 04:36:03;;;;;;;29.48;13.45;;;3.50;99.90;;;;;;4993326;28;20069;-66
2022/12/02 04:38:28;;;;;;;24.45;12.15;;;3.50;99.90;;;;;;5014164;28;20077;-65
2022/12/02 04:40:54;;;;;;;28.73;19.52;;;3.50;99.90;;;;;;4996637;28;20418;-65
2022/12/02 04:43:19;;;;;;;24.42;11.30;;;3.50;99.90;;;;;;5009894;28;20046;-65
2022/12/02 04:45:45;;;;;;;27.77;18.70;;;3.50;99.90;;;;;;4994654;28;20103;-64
2022/12/02 04:48:10;;;;;;;26.80;12.73;;;3.50;99.90;;;;;;5011974;28;20473;-66
2022/12/02 04:50:36;;;;;;;26.65;18.55;;;3.40;99.90;;;;;;5014050;28;20084;-66
2022/12/02 04:53:02;;;;;;;26.67;12.10;;;3.40;99.90;;;;;;5011339;28;20050;-66
2022/12/02 04:55:28;;;;;;;23.00;11.60;;;3.30;99.90;;;;;;4984950;28;20048;-66
2022/12/02 04:57:53;;;;;;;22.00;10.32;;;3.30;99.90;;;;;;5013428;28;20042;-65
2022/12/02 05:00:19;;;;;;;23.10;11.30;;;3.30;99.90;;;;;;5013575;28;20454;-65
2022/12/02 05:02:45;;;;;;;27.38;17.65;;;3.30;99.90;;;;;;5005421;28;20066;-65
2022/12/02 05:05:11;;;;;;;28.85;13.48;;;3.20;99.90;;;;;;4990446;28;20050;-65
2022/12/02 05:07:36;;;;;;;27.40;12.50;;;3.20;99.90;;;;;;5013413;28;20075;-66
2022/12/02 05:10:04;;;;;;;23.60;10.98;;;3.20;99.90;;;;;;5013806;28;20473;-67
2022/12/02 05:12:29;;;;;;;26.92;10.80;;;3.10;99.90;;;;;;5013313;28;20394;-66
2022/12/02 05:14:55;;;;;;;24.92;11.73;;;3.20;99.90;;;;;;4989201;28;20056;-65
2022/12/02 05:17:20;;;;;;;24.10;11.85;;;3.20;99.90;;;;;;4996492;28;20064;-65
2022/12/02 05:19:46;;;;;;;27.13;18.73;;;3.20;99.90;;;;;;4996455;28;20078;-65
2022/12/02 05:22:12;;;;;;;27.15;13.45;;;3.20;99.90;;;;;;5013480;28;20040;-66
2022/12/02 05:24:39;;;;;;;27.30;12.77;;;3.10;99.90;;;;;;4971748;28;20033;-66
2022/12/02 05:27:04;;;;;;;25.80;12.57;;;3.10;99.90;;;;;;5013520;28;20064;-66
2022/12/02 05:29:30;;;;;;;27.65;12.80;;;3.10;99.90;;;;;;5013099;28;20042;-66
2022/12/02 05:31:55;;;;;;;29.50;19.17;;;3.10;99.90;;;;;;4995662;28;20037;-65
2022/12/02 05:34:21;;;;;;;25.58;12.18;;;3.10;99.90;;;;;;4985775;28;20471;-66
2022/12/02 05:36:47;;;;;;;25.70;11.75;;;3.20;99.90;;;;;;4995986;28;20360;-66
2022/12/02 05:39:12;;;;;;;22.38;10.45;;;3.10;99.90;;;;;;4995532;28;20060;-65
2022/12/02 05:41:38;;;;;;;28.90;11.18;;;3.10;99.90;;;;;;4979881;28;20033;-65
2022/12/02 05:44:19;;;;;;;29.13;17.63;;;3.10;99.90;;;;;;4986140;28;20272;-65
2022/12/02 05:46:45;;;;;;;24.63;11.93;;;3.10;99.90;;;;;;4970661;28;20053;-67
2022/12/02 05:49:23;;;;;;;26.77;17.92;;;3.10;99.90;;;;;;4995433;28;20042;-65
2022/12/02 05:51:55;;;;;;;26.55;12.85;;;3.10;99.90;;;;;;4968618;28;20030;-66
2022/12/02 05:54:22;;;;;;;28.67;18.67;;;3.10;99.90;;;;;;4983566;28;20073;-65
2022/12/02 05:56:48;;;;;;;31.13;19.58;;;3.10;99.90;;;;;;4970849;28;20066;-66
2022/12/02 05:59:16;;;;;;;31.30;12.93;;;3.10;99.90;;;;;;4965055;28;20031;-66
2022/12/02 06:01:52;;;;;;;25.77;12.43;;;3.10;99.90;;;;;;4959529;28;20380;-66
2022/12/02 06:04:24;;;;;;;31.65;13.10;;;3.10;99.90;;;;;;4962925;28;20034;-67
2022/12/02 06:06:52;;;;;;;27.83;13.20;;;3.00;99.90;;;;;;4960709;28;20054;-66
2022/12/02 06:09:24;;;;;;;28.52;13.15;;;3.00;99.90;;;;;;4957173;28;20051;-65
2022/12/02 06:11:51;;;;;;;30.75;13.50;;;3.00;99.90;;;;;;4958202;28;20042;-67
2022/12/02 06:14:23;;;;;;;32.08;20.63;;;2.90;99.90;;;;;;4956700;28;20129;-67
2022/12/02 06:16:52;;;;;;;35.67;14.35;;;3.00;99.90;;;;;;4967443;28;20078;-65
2022/12/02 06:19:43;;;;;;;34.10;15.15;;;3.00;99.90;;;;;;4972843;28;20085;-67
2022/12/02 06:22:21;;;;;;;33.17;22.40;;;3.00;99.90;;;;;;4969944;28;20027;-69
2022/12/02 06:24:47;;;;;;;34.63;15.40;;;3.00;99.90;;;;;;4975397;28;20043;-68
2022/12/02 06:27:14;;;;;;;36.83;22.40;;;3.00;99.90;;;;;;4960269;28;20101;-65
2022/12/02 06:29:48;;;;;;;33.20;16.13;;;3.00;99.90;;;;;;4956542;28;20066;-65
2022/12/02 06:32:19;;;;;;;32.70;13.73;;;3.00;99.90;;;;;;4969997;28;20078;-67
2022/12/02 06:34:45;;;;;;;36.95;16.50;;;3.00;99.90;;;;;;4975610;28;20091;-64
2022/12/02 06:37:17;;;;;;;36.75;23.20;;;2.90;99.90;;;;;;4974928;28;20049;-64
2022/12/02 06:39:46;;;;;;;30.98;14.63;;;2.90;99.90;;;;;;4975508;28;20056;-66
2022/12/02 06:42:20;;;;;;;35.53;15.35;;;2.90;99.90;;;;;;4975776;28;20418;-65
2022/12/02 06:45:04;;;;;;;31.45;14.40;;;2.90;99.90;;;;;;4973971;28;20057;-66
2022/12/02 06:47:35;;;;;;;35.45;15.63;;;2.80;99.90;;;;;;4974098;28;20050;-65
2022/12/02 06:50:04;;;;;;;37.42;16.17;;;2.80;99.90;;;;;;4974431;28;20089;-66
2022/12/02 06:52:34;;;;;;;37.67;24.42;;;2.90;99.90;;;;;;4957621;28;20057;-66
2022/12/02 06:55:00;;;;;;;32.40;14.00;;;2.80;99.90;;;;;;4976667;28;20591;-65
2022/12/02 06:57:30;;;;;;;36.47;15.63;;;2.90;99.90;;;;;;4980378;28;20089;-66
2022/12/02 06:59:56;;;;;;;35.40;16.60;;;2.80;99.90;;;;;;4978700;28;20057;-65
2022/12/02 07:02:30;;;;;;;40.58;17.10;;;2.80;99.90;;;;;;5017427;28;20041;-66
2022/12/02 07:04:57;;;;;;;38.72;16.85;;;2.70;99.90;;;;;;4992525;28;20169;-65
2022/12/02 07:07:27;;;;;;;41.72;17.55;;;2.80;99.90;;;;;;4968528;28;20410;-66
2022/12/02 07:09:55;;;;;;;40.28;17.48;;;2.80;99.90;;;;;;4975040;28;20064;-66
2022/12/02 07:12:44;;;;;;;41.42;17.00;;;2.80;99.90;;;;;;4979302;28;20042;-65
2022/12/02 07:15:31;;;;;;;39.38;17.23;;;2.70;99.90;;;;;;4965359;28;20093;-66
2022/12/02 07:18:15;;;;;;;44.63;27.23;;;2.80;99.90;;;;;;4978261;28;20038;-66
2022/12/02 07:20:43;;;;;;;41.85;17.00;;;2.80;99.90;;;;;;4984123;28;20162;-67
2022/12/02 07:23:22;;;;;;;37.53;16.33;;;2.80;99.90;;;;;;4962990;28;20038;-67
2022/12/02 07:25:53;;;;;;;41.65;16.30;;;2.70;99.90;;;;;;4962742;28;20418;-68
2022/12/02 07:28:26;;;;;;;46.30;26.45;;;2.80;99.90;;;;;;4965515;28;20133;-67
2022/12/02 07:31:09;;;;;;;43.38;18.50;;;2.80;99.90;;;;;;4965014;28;20038;-67
2022/12/02 07:33:34;;;;;;;49.97;18.00;;;2.80;99.90;;;;;;4972482;28;20380;-67
2022/12/02 07:36:00;;;;;;;45.60;20.17;;;2.70;99.90;;;;;;4963488;28;20047;-67
2022/12/02 07:38:26;;;;;;;46.72;18.25;;;2.70;99.90;;;;;;4960713;28;20100;-66
2022/12/02 07:40:51;;;;;;;47.83;19.55;;;2.60;99.90;;;;;;4975192;28;20050;-68
2022/12/02 07:43:17;;;;;;;45.83;18.83;;;2.70;99.90;;;;;;4981145;28;20376;-70
2022/12/02 07:45:42;;;;;;;47.80;18.67;;;2.70;99.90;;;;;;4981155;28;20602;-66
2022/12/02 07:48:08;;;;;;;47.40;18.45;;;2.70;99.90;;;;;;4964496;28;20134;-66
2022/12/02 07:50:34;;;;;;;46.40;20.08;;;2.70;99.90;;;;;;5008625;28;20046;-67
2022/12/02 07:52:59;;;;;;;46.53;19.60;;;2.60;99.90;;;;;;4983468;28;20051;-69
2022/12/02 07:55:25;;;;;;;43.60;17.50;;;2.80;99.90;;;;;;4980162;28;20073;-66
2022/12/02 07:57:51;;;;;;;44.50;18.10;;;2.80;99.90;;;;;;4977323;28;20050;-66
2022/12/02 08:00:17;;;;;;;47.45;19.40;;;2.80;99.90;;;;;;4972811;28;20038;-70
2022/12/02 08:02:43;;;;;;;54.08;30.10;;;2.80;99.90;;;;;;4989859;28;20446;-67
2022/12/02 08:05:10;;;;;;;42.85;17.92;;;2.80;99.90;;;;;;4991133;28;20110;-66
2022/12/02 08:07:36;;;;;;;49.38;20.60;;;2.80;99.90;;;;;;4984102;28;20038;-68
2022/12/02 08:10:02;;;;;;;55.45;30.65;;;2.80;99.90;;;;;;4997407;28;20585;-67
2022/12/02 08:12:28;;;;;;;44.15;18.40;;;2.90;99.90;;;;;;4997303;28;20093;-67
2022/12/02 08:14:53;;;;;;;48.58;19.80;;;2.90;99.90;;;;;;4986409;28;20089;-67
2022/12/02 08:17:19;;;;;;;50.25;20.77;;;2.90;99.90;;;;;;4979809;28;20050;-67
2022/12/02 08:19:44;;;;;;;47.10;19.77;;;2.80;99.90;;;;;;4997228;28;20092;-67
2022/12/02 08:22:10;;;;;;;56.22;20.45;;;2.90;99.90;;;;;;4997238;28;20466;-67
2022/12/02 08:24:35;;;;;;;60.10;31.92;;;2.90;99.90;;;;;;4990509;28;20064;-67
2022/12/02 08:27:01;;;;;;;40.83;15.82;;;2.90;99.90;;;;;;4997342;28;20103;-67
2022/12/02 08:29:27;;;;;;;53.85;18.67;;;3.00;99.90;;;;;;4992648;28;20038;-66
2022/12/02 08:31:53;;;;;;;56.78;21.63;;;3.00;99.90;;;;;;4977565;28;20412;-67
2022/12/02 08:34:18;;;;;;;49.17;18.83;;;2.90;99.90;;;;;;4985056;28;20057;-67
2022/12/02 08:36:44;;;;;;;57.50;30.92;;;2.90;99.90;;;;;;4997325;28;20054;-67
2022/12/02 08:39:09;;;;;;;47.13;19.63;;;3.00;99.90;;;;;;5014183;28;20049;-70
2022/12/02 08:41:37;;;;;;;44.35;18.58;;;3.00;99.90;;;;;;4997068;28;20103;-67
2022/12/02 08:44:03;;;;;;;47.83;19.25;;;2.90;99.90;;;;;;4988598;28;20038;-66
2022/12/02 08:46:30;;;;;;;41.40;18.15;;;2.90;99.90;;;;;;4979184;28;20465;-66
2022/12/02 08:48:56;;;;;;;46.33;19.83;;;2.80;99.90;;;;;;4991496;28;20067;-68
2022/12/02 08:51:21;;;;;;;49.65;30.77;;;2.80;99.90;;;;;;4993425;28;20463;-66
2022/12/02 08:53:47;;;;;;;51.42;21.08;;;3.00;99.90;;;;;;4987938;28;20133;-69
2022/12/02 08:56:13;;;;;;;47.63;20.08;;;3.00;99.90;;;;;;4991305;28;20044;-66
2022/12/02 08:58:39;;;;;;;43.47;16.98;;;2.90;99.90;;;;;;4996129;28;20050;-65
2022/12/02 09:01:05;;;;;;;52.40;30.27;;;3.00;99.90;;;;;;4996541;28;20382;-66
2022/12/02 09:03:31;;;;;;;50.65;19.33;;;3.10;99.90;;;;;;4992738;28;20096;-66
2022/12/02 09:05:57;;;;;;;49.30;19.95;;;3.10;99.90;;;;;;4990431;28;20034;-65
2022/12/02 09:08:23;;;;;;;54.33;31.85;;;3.00;99.90;;;;;;4988178;28;20117;-67
2022/12/02 09:10:48;;;;;;;47.80;19.52;;;3.10;99.90;;;;;;4991963;28;20050;-66
2022/12/02 09:13:14;;;;;;;44.55;18.60;;;3.00;99.90;;;;;;4986156;28;20049;-66
2022/12/02 09:15:39;;;;;;;42.00;18.13;;;3.10;99.90;;;;;;4976473;28;20053;-66
2022/12/02 09:18:05;;;;;;;49.17;28.65;;;3.10;99.90;;;;;;5002048;28;20037;-64
2022/12/02 09:20:31;;;;;;;45.58;18.98;;;3.00;99.90;;;;;;4996107;28;20045;-66
2022/12/02 09:22:56;;;;;;;41.42;15.25;;;2.90;99.90;;;;;;4996517;28;20041;-66
2022/12/02 09:25:25;;;;;;;44.63;18.27;;;3.00;99.90;;;;;;5007520;28;20125;-66
2022/12/02 09:27:50;;;;;;;46.08;18.85;;;2.90;99.90;;;;;;4977525;28;20165;-66
2022/12/02 09:30:16;;;;;;;38.13;16.33;;;2.90;99.90;;;;;;4960834;28;20045;-66
2022/12/02 09:32:42;;;;;;;38.65;17.17;;;3.00;99.90;;;;;;5007877;28;20423;-66
2022/12/02 09:35:07;;;;;;;49.17;17.50;;;3.00;99.90;;;;;;4984949;28;20042;-65
2022/12/02 09:37:33;;;;;;;44.15;18.17;;;3.10;99.90;;;;;;4995764;28;20041;-66
2022/12/02 09:39:59;;;;;;;40.30;18.60;;;3.00;99.90;;;;;;4996019;28;20098;-66
2022/12/02 09:42:24;;;;;;;39.67;16.00;;;3.10;99.90;;;;;;5013333;28;20094;-66
2022/12/02 09:44:50;;;;;;;45.80;27.35;;;3.00;99.90;;;;;;4985839;28;20037;-69
2022/12/02 09:47:18;;;;;;;39.50;15.23;;;3.20;99.90;;;;;;4995091;28;20073;-70
2022/12/02 09:49:44;;;;;;;41.97;17.77;;;3.20;99.90;;;;;;4981832;28;20044;-69
2022/12/02 09:52:14;;;;;;;45.08;18.48;;;3.10;99.90;;;;;;4992018;28;20514;-66
2022/12/02 09:54:41;;;;;;;40.08;16.23;;;3.10;99.90;;;;;;4981228;28;20479;-65
2022/12/02 09:57:15;;;;;;;46.22;18.77;;;3.10;99.90;;;;;;4981954;28;20046;-67
2022/12/02 09:59:42;;;;;;;46.20;17.55;;;3.10;99.90;;;;;;4991742;28;20070;-67
2022/12/02 10:02:22;;;;;;;43.40;18.48;;;3.10;99.90;;;;;;4989398;28;20105;-65
2022/12/02 10:04:48;;;;;;;41.55;16.92;;;3.20;99.90;;;;;;4978792;28;20479;-67
2022/12/02 10:07:14;;;;;;;44.60;17.73;;;3.10;99.90;;;;;;4989284;28;20038;-71
2022/12/02 10:09:39;;;;;;;47.30;25.75;;;3.20;99.90;;;;;;4992420;28;20415;-68
2022/12/02 10:12:08;;;;;;;45.95;18.27;;;3.30;99.90;;;;;;4991797;28;20053;-66
2022/12/02 10:14:34;;;;;;;46.00;16.67;;;3.40;99.90;;;;;;4987514;28;20125;-67
2022/12/02 10:17:00;;;;;;;44.40;17.42;;;3.30;99.90;;;;;;4991625;28;20435;-68
2022/12/02 10:19:25;;;;;;;43.55;17.83;;;3.30;99.90;;;;;;4990482;28;20038;-66
2022/12/02 10:21:51;;;;;;;45.42;18.17;;;3.30;99.90;;;;;;4992100;28;20371;-67
2022/12/02 10:24:35;;;;;;;45.30;25.60;;;3.30;99.90;;;;;;4969902;28;20022;-68
2022/12/02 10:27:01;;;;;;;41.83;16.77;;;3.40;99.90;;;;;;4992120;28;20046;-67
2022/12/02 10:29:29;;;;;;;46.65;18.08;;;3.40;99.90;;;;;;4991279;28;20046;-66
2022/12/02 10:31:56;;;;;;;41.90;25.65;;;3.40;99.90;;;;;;4981432;28;20080;-69
2022/12/02 10:34:22;;;;;;;45.30;18.45;;;3.50;99.90;;;;;;4980785;28;20376;-66
2022/12/02 10:36:48;;;;;;;46.63;25.58;;;3.50;99.90;;;;;;4992062;28;20369;-67
2022/12/02 10:39:20;;;;;;;44.55;27.10;;;3.50;99.90;;;;;;4991388;28;20053;-66
2022/12/02 10:42:07;;;;;;;39.90;16.45;;;3.50;99.90;;;;;;4992064;28;20082;-66
2022/12/02 10:44:38;;;;;;;42.58;18.05;;;3.40;99.90;;;;;;4981980;28;20126;-66
2022/12/02 10:47:10;;;;;;;43.50;18.80;;;3.40;99.90;;;;;;4991349;28;20046;-66
2022/12/02 10:49:35;;;;;;;46.33;18.73;;;3.50;99.90;;;;;;4979367;28;20716;-65
2022/12/02 10:52:06;;;;;;;40.53;16.83;;;3.50;99.90;;;;;;4984048;28;20435;-66
2022/12/02 10:54:33;;;;;;;40.58;16.13;;;3.50;99.90;;;;;;4979036;28;20074;-65
2022/12/02 10:57:00;;;;;;;48.10;25.40;;;3.50;99.90;;;;;;4989193;28;20049;-66
2022/12/02 10:59:26;;;;;;;31.35;13.90;;;3.50;99.90;;;;;;4987990;28;20469;-66
2022/12/02 11:01:53;;;;;;;43.63;23.85;;;3.50;99.90;;;;;;4994694;28;20037;-66
2022/12/02 11:04:18;;;;;;;34.03;14.43;;;3.50;99.90;;;;;;4992308;28;20038;-66
2022/12/02 11:06:45;;;;;;;37.65;15.70;;;3.50;99.90;;;;;;4992577;28;20072;-67
2022/12/02 11:09:20;;;;;;;35.33;13.23;;;3.50;99.90;;;;;;4994477;28;20475;-66
2022/12/02 11:11:46;;;;;;;35.45;13.15;;;3.50;99.90;;;;;;5012462;28;20105;-66
2022/12/02 11:14:33;;;;;;;46.50;17.50;;;3.50;99.90;;;;;;4990857;28;20077;-66
2022/12/02 11:17:11;;;;;;;30.60;12.95;;;3.40;99.90;;;;;;5010435;28;20151;-66
2022/12/02 11:19:39;;;;;;;40.88;15.77;;;3.50;99.90;;;;;;4987036;28;20046;-66
2022/12/02 11:22:44;;;;;;;37.45;16.52;;;3.40;99.90;;;;;;4992782;28;20180;-66
2022/12/02 11:25:55;;;;;;;34.42;13.77;;;3.40;99.90;;;;;;4998774;28;20347;-66
2022/12/02 11:28:27;;;;;;;40.28;15.57;;;3.30;99.90;;;;;;5008229;28;20065;-66
2022/12/02 11:31:13;;;;;;;38.35;16.10;;;3.30;99.90;;;;;;5013144;28;20060;-66
2022/12/02 11:33:42;;;;;;;45.60;24.50;;;3.30;99.90;;;;;;5005092;28;20034;-65
2022/12/02 11:36:12;;;;;;;41.22;23.45;;;3.40;99.90;;;;;;4995452;28;20477;-66
2022/12/02 11:38:50;;;;;;;38.50;15.07;;;3.40;99.90;;;;;;5015762;28;20121;-66
2022/12/02 11:41:16;;;;;;;38.03;15.10;;;3.40;99.90;;;;;;4998142;28;20042;-68
2022/12/02 11:43:45;;;;;;;29.67;12.50;;;3.30;99.90;;;;;;5010706;28;20488;-65
2022/12/02 11:46:14;;;;;;;38.08;22.58;;;3.30;99.90;;;;;;4992133;28;20068;-66
2022/12/02 11:48:48;;;;;;;32.50;14.07;;;3.30;99.90;;;;;;4983125;28;20046;-66
2022/12/02 11:51:39;;;;;;;25.77;12.40;;;3.30;99.90;;;;;;4977565;28;20038;-65
2022/12/02 11:54:11;;;;;;;32.83;14.18;;;3.30;99.90;;;;;;5008292;28;20042;-65
2022/12/02 11:56:38;;;;;;;28.92;12.70;;;3.20;99.90;;;;;;4994295;28;20435;-66
2022/12/02 11:59:22;;;;;;;39.95;22.95;;;3.20;99.90;;;;;;5014858;28;20056;-66
2022/12/02 12:01:48;;;;;;;40.83;15.87;;;3.30;99.90;;;;;;4997790;28;20041;-66
2022/12/02 12:04:28;;;;;;;38.95;22.52;;;3.20;99.90;;;;;;4996058;28;20281;-66
2022/12/02 12:07:00;;;;;;;37.25;16.58;;;3.20;99.90;;;;;;4993622;28;20062;-67
2022/12/02 12:09:26;;;;;;;35.55;15.68;;;3.30;99.90;;;;;;4984801;28;20177;-65
2022/12/02 12:12:05;;;;;;;41.08;15.27;;;3.30;99.90;;;;;;4997907;28;20041;-68
2022/12/02 12:14:30;;;;;;;37.10;22.50;;;3.30;99.90;;;;;;4978303;28;20074;-67
2022/12/02 12:17:16;;;;;;;31.85;15.45;;;3.40;99.90;;;;;;4967801;28;20105;-68
2022/12/02 12:19:42;;;;;;;32.90;16.05;;;3.40;99.90;;;;;;4997701;28;20084;-67
2022/12/02 12:22:29;;;;;;;42.38;24.52;;;3.40;99.90;;;;;;4981689;28;20061;-66
2022/12/02 12:25:30;;;;;;;36.75;15.43;;;3.40;99.90;;;;;;4988141;28;20202;-68
2022/12/02 12:27:56;;;;;;;44.90;26.65;;;3.40;99.90;;;;;;4996209;28;20046;-66
2022/12/02 12:30:22;;;;;;;38.25;17.92;;;3.40;99.90;;;;;;4997801;28;20137;-66
2022/12/02 12:32:48;;;;;;;43.92;18.67;;;3.30;99.90;;;;;;4997138;28;20038;-67
2022/12/02 12:35:13;;;;;;;47.85;29.33;;;3.20;99.90;;;;;;5004809;28;20045;-67
2022/12/02 12:37:39;;;;;;;41.40;18.60;;;3.20;99.90;;;;;;5014627;28;20078;-66
2022/12/02 12:40:07;;;;;;;42.05;18.80;;;3.20;99.90;;;;;;4981351;28;20131;-65
2022/12/02 12:42:38;;;;;;;41.47;16.98;;;3.10;99.90;;;;;;4980874;28;20053;-66
2022/12/02 12:45:05;;;;;;;48.05;19.10;;;3.30;99.90;;;;;;4989559;28;20038;-67
2022/12/02 12:47:31;;;;;;;49.15;21.48;;;3.20;99.90;;;;;;5014603;28;20057;-69